createdAt,value
2018-06-23T00:00:03.432Z,99.99
2018-06-23T00:01:03.414Z,99.99
2018-06-23T00:02:03.357Z,99.99
2018-06-23T00:03:03.311Z,99.99
2018-06-23T00:04:03.285Z,99.99
2018-06-23T00:05:03.232Z,99.99
2018-06-23T00:06:03.214Z,99.99
2018-06-23T00:07:03.145Z,99.99
2018-06-23T00:08:03.112Z,99.99
2018-06-23T00:09:03.093Z,99.99
2018-06-23T00:10:03.026Z,99.99
2018-06-23T00:11:02.986Z,99.99
2018-06-23T00:12:02.955Z,99.99
2018-06-23T00:13:02.913Z,99.99
2018-06-23T00:14:02.896Z,99.99
2018-06-23T00:15:02.836Z,99.99
2018-06-23T00:16:02.789Z,99.99
2018-06-23T00:17:02.750Z,99.99
2018-06-23T00:18:02.712Z,99.99
2018-06-23T00:19:02.693Z,99.99
2018-06-23T00:20:02.638Z,99.99
2018-06-23T00:21:02.602Z,99.99
2018-06-23T00:22:02.559Z,99.99
2018-06-23T00:23:02.523Z,99.99
2018-06-23T00:24:02.499Z,99.99
2018-06-23T00:25:02.435Z,99.99
2018-06-23T00:26:02.400Z,99.99
2018-06-23T00:27:02.359Z,99.99
2018-06-23T00:28:02.315Z,99.99
2018-06-23T00:29:02.273Z,99.99
2018-06-23T00:30:02.257Z,99.99
2018-06-23T00:31:02.199Z,99.99
2018-06-23T00:32:02.162Z,99.99
2018-06-23T00:33:02.123Z,99.99
2018-06-23T00:34:02.082Z,99.99
2018-06-23T00:35:02.073Z,99.99
2018-06-23T00:36:01.996Z,99.99
2018-06-23T00:37:01.957Z,99.99
2018-06-23T00:38:01.915Z,99.99
2018-06-23T00:39:01.877Z,99.99
2018-06-23T00:40:01.846Z,99.99
2018-06-23T00:41:01.825Z,99.99
2018-06-23T00:42:01.757Z,99.99
2018-06-23T00:43:01.723Z,99.99
2018-06-23T00:44:01.696Z,99.99
2018-06-23T00:45:01.644Z,99.99
2018-06-23T00:46:01.628Z,99.99
2018-06-23T00:47:01.564Z,99.99
2018-06-23T00:48:01.517Z,99.99
2018-06-23T00:49:01.480Z,99.99
2018-06-23T00:50:01.455Z,99.99
2018-06-23T00:51:01.424Z,99.99
2018-06-23T00:52:01.364Z,99.99
2018-06-23T00:53:01.328Z,99.99
2018-06-23T00:54:01.285Z,99.99
2018-06-23T00:55:01.244Z,99.99
2018-06-23T00:56:01.225Z,99.99
2018-06-23T00:57:01.159Z,99.99
2018-06-23T00:58:01.126Z,99.99
2018-06-23T00:59:01.088Z,99.99
2018-06-23T01:00:01.040Z,99.99
2018-06-23T01:01:00.997Z,99.99
2018-06-23T01:02:00.980Z,99.99
2018-06-23T01:03:00.921Z,99.99
2018-06-23T01:04:00.886Z,99.99
2018-06-23T01:05:00.849Z,99.99
2018-06-23T01:06:00.836Z,99.99
2018-06-23T01:07:00.769Z,99.99
2018-06-23T01:08:00.718Z,99.99
2018-06-23T01:09:00.678Z,99.99
2018-06-23T01:10:00.641Z,99.99
2018-06-23T01:11:00.597Z,99.99
2018-06-23T01:12:00.587Z,99.99
2018-06-23T01:13:00.530Z,99.99
2018-06-23T01:14:00.478Z,99.99
2018-06-23T01:15:00.438Z,99.99
2018-06-23T01:16:00.431Z,99.99
2018-06-23T01:17:00.364Z,99.99
2018-06-23T01:18:00.329Z,99.99
2018-06-23T01:19:00.289Z,99.99
2018-06-23T01:20:00.236Z,99.99
2018-06-23T01:21:00.196Z,99.99
2018-06-23T01:22:00.181Z,99.99
2018-06-23T01:23:00.116Z,99.99
2018-06-23T01:24:00.089Z,99.99
2018-06-23T01:25:00.047Z,99.99
2018-06-23T01:26:00.028Z,99.99
2018-06-23T01:26:59.966Z,99.99
2018-06-23T01:27:59.917Z,99.99
2018-06-23T01:28:59.877Z,99.99
2018-06-23T01:29:59.843Z,99.99
2018-06-23T01:30:59.827Z,99.99
2018-06-23T01:31:59.756Z,99.99
2018-06-23T01:32:59.714Z,99.99
2018-06-23T01:33:59.676Z,99.99
2018-06-23T01:34:59.633Z,99.99
2018-06-23T01:35:59.626Z,99.99
2018-06-23T01:36:59.562Z,99.99
2018-06-23T01:37:59.524Z,99.99
2018-06-23T01:38:59.483Z,99.99
2018-06-23T01:39:59.434Z,99.99
2018-06-23T01:40:59.423Z,99.99
2018-06-23T01:41:59.353Z,99.99
2018-06-23T01:42:59.313Z,99.99
2018-06-23T01:43:59.279Z,99.99
2018-06-23T01:44:59.239Z,99.99
2018-06-23T01:45:59.192Z,99.99
2018-06-23T01:46:59.172Z,99.99
2018-06-23T01:47:59.120Z,99.99
2018-06-23T01:48:59.080Z,99.99
2018-06-23T01:49:59.040Z,99.99
2018-06-23T01:50:59.018Z,99.99
2018-06-23T01:51:58.953Z,99.99
2018-06-23T01:52:58.914Z,99.99
2018-06-23T01:53:58.871Z,99.99
2018-06-23T01:54:58.827Z,99.99
2018-06-23T01:55:58.819Z,99.99
2018-06-23T01:56:58.756Z,99.99
2018-06-23T01:57:58.718Z,99.99
2018-06-23T01:58:58.676Z,99.99
2018-06-23T01:59:58.628Z,99.99
2018-06-23T02:00:58.611Z,99.99
2018-06-23T02:01:58.553Z,99.99
2018-06-23T02:02:58.514Z,99.99
2018-06-23T02:03:58.465Z,99.99
2018-06-23T02:04:58.429Z,99.99
2018-06-23T02:05:58.412Z,99.99
2018-06-23T02:06:58.345Z,99.99
2018-06-23T02:07:58.312Z,99.99
2018-06-23T02:08:58.274Z,99.99
2018-06-23T02:09:58.233Z,99.99
2018-06-23T02:10:58.193Z,99.99
2018-06-23T02:11:58.166Z,99.99
2018-06-23T02:12:58.103Z,99.99
2018-06-23T02:13:58.061Z,99.99
2018-06-23T02:14:58.028Z,99.99
2018-06-23T02:15:58.013Z,99.99
2018-06-23T02:16:57.950Z,99.99
2018-06-23T02:17:57.903Z,99.99
2018-06-23T02:18:57.861Z,99.99
2018-06-23T02:19:57.828Z,99.99
2018-06-23T02:20:57.810Z,99.99
2018-06-23T02:21:57.792Z,99.99
2018-06-23T02:22:57.724Z,99.99
2018-06-23T02:23:57.660Z,99.99
2018-06-23T02:24:57.619Z,99.99
2018-06-23T02:25:57.607Z,99.99
2018-06-23T02:26:57.538Z,99.99
2018-06-23T02:27:57.505Z,99.99
2018-06-23T02:28:57.465Z,99.99
2018-06-23T02:29:57.424Z,99.99
2018-06-23T02:30:57.410Z,99.99
2018-06-23T02:31:57.337Z,99.99
2018-06-23T02:32:57.298Z,99.99
2018-06-23T02:33:57.260Z,99.99
2018-06-23T02:34:57.221Z,99.99
2018-06-23T02:35:57.173Z,99.99
2018-06-23T02:36:57.156Z,99.99
2018-06-23T02:37:57.091Z,99.99
2018-06-23T02:38:57.059Z,99.99
2018-06-23T02:39:57.015Z,99.99
2018-06-23T02:40:56.979Z,99.99
2018-06-23T02:41:56.960Z,99.99
2018-06-23T02:42:56.901Z,99.99
2018-06-23T02:43:56.848Z,99.99
2018-06-23T02:44:56.814Z,99.99
2018-06-23T02:45:56.769Z,99.99
2018-06-23T02:46:56.750Z,99.99
2018-06-23T02:47:56.695Z,99.99
2018-06-23T02:48:56.650Z,99.99
2018-06-23T02:49:56.612Z,99.99
2018-06-23T02:50:56.573Z,99.99
2018-06-23T02:51:56.559Z,99.99
2018-06-23T02:52:56.498Z,99.99
2018-06-23T02:53:56.448Z,99.99
2018-06-23T02:54:56.412Z,99.99
2018-06-23T02:55:56.364Z,99.99
2018-06-23T02:56:56.350Z,99.99
2018-06-23T02:57:56.284Z,99.99
2018-06-23T02:58:56.239Z,99.99
2018-06-23T02:59:56.208Z,99.99
2018-06-23T03:00:56.165Z,99.99
2018-06-23T03:01:56.133Z,99.99
2018-06-23T03:02:56.116Z,99.99
2018-06-23T03:03:56.043Z,99.99
2018-06-23T03:04:55.999Z,99.99
2018-06-23T03:05:55.970Z,99.99
2018-06-23T03:06:55.952Z,99.99
2018-06-23T03:07:55.880Z,99.99
2018-06-23T03:08:55.841Z,99.99
2018-06-23T03:09:55.799Z,99.99
2018-06-23T03:10:55.752Z,99.99
2018-06-23T03:11:55.740Z,99.99
2018-06-23T03:12:55.682Z,99.99
2018-06-23T03:13:55.636Z,99.99
2018-06-23T03:14:55.595Z,99.99
2018-06-23T03:15:55.558Z,99.99
2018-06-23T03:16:55.542Z,99.99
2018-06-23T03:17:55.472Z,99.99
2018-06-23T03:18:55.431Z,99.99
2018-06-23T03:19:55.394Z,99.99
2018-06-23T03:20:55.356Z,99.99
2018-06-23T03:21:55.308Z,99.99
2018-06-23T03:22:55.293Z,99.99
2018-06-23T03:23:55.233Z,99.99
2018-06-23T03:24:55.192Z,99.99
2018-06-23T03:25:55.151Z,99.99
2018-06-23T03:26:55.111Z,99.99
2018-06-23T03:27:55.089Z,99.99
2018-06-23T03:28:55.029Z,99.99
2018-06-23T03:29:54.984Z,99.99
2018-06-23T03:30:54.939Z,99.99
2018-06-23T03:31:54.910Z,99.99
2018-06-23T03:32:54.866Z,99.99
2018-06-23T03:33:54.847Z,99.99
2018-06-23T03:34:54.783Z,99.99
2018-06-23T03:35:54.740Z,99.99
2018-06-23T03:36:54.695Z,99.99
2018-06-23T03:37:54.663Z,99.99
2018-06-23T03:38:54.650Z,99.99
2018-06-23T03:39:54.572Z,99.99
2018-06-23T03:40:54.533Z,99.99
2018-06-23T03:41:54.504Z,99.99
2018-06-23T03:42:54.460Z,99.99
2018-06-23T03:43:54.543Z,99.99
2018-06-23T03:44:54.380Z,99.99
2018-06-23T03:45:54.335Z,99.99
2018-06-23T03:46:54.326Z,99.99
2018-06-23T03:47:54.249Z,99.99
2018-06-23T03:48:54.232Z,99.99
2018-06-23T03:49:54.166Z,99.99
2018-06-23T03:50:54.123Z,99.99
2018-06-23T03:51:54.090Z,99.99
2018-06-23T03:52:54.052Z,99.99
2018-06-23T03:53:54.266Z,99.99
2018-06-23T03:54:53.983Z,99.99
2018-06-23T03:55:53.942Z,99.99
2018-06-23T03:56:53.886Z,99.99
2018-06-23T03:57:53.851Z,99.99
2018-06-23T03:58:53.811Z,99.99
2018-06-23T03:59:53.777Z,99.99
2018-06-23T04:00:53.718Z,99.99
2018-06-23T04:01:53.677Z,99.99
2018-06-23T04:02:53.637Z,99.99
2018-06-23T04:03:53.601Z,99.99
2018-06-23T04:04:53.591Z,99.99
2018-06-23T04:05:53.520Z,99.99
2018-06-23T04:06:53.477Z,99.99
2018-06-23T04:07:53.431Z,99.99
2018-06-23T04:08:53.392Z,99.99
2018-06-23T04:09:53.359Z,99.99
2018-06-23T04:10:53.336Z,99.99
2018-06-23T04:11:53.268Z,99.99
2018-06-23T04:12:53.230Z,99.99
2018-06-23T04:13:53.190Z,99.99
2018-06-23T04:14:53.160Z,99.99
2018-06-23T04:15:53.137Z,99.99
2018-06-23T04:16:53.147Z,99.99
2018-06-23T04:17:53.034Z,99.99
2018-06-23T04:18:52.990Z,99.99
2018-06-23T04:19:52.945Z,99.99
2018-06-23T04:20:52.929Z,99.99
2018-06-23T04:21:52.861Z,99.99
2018-06-23T04:22:52.822Z,99.99
2018-06-23T04:23:52.792Z,99.99
2018-06-23T04:24:52.747Z,99.99
2018-06-23T04:25:52.704Z,99.99
2018-06-23T04:26:52.682Z,99.99
2018-06-23T04:27:52.626Z,99.99
2018-06-23T04:28:52.585Z,99.99
2018-06-23T04:29:52.547Z,99.99
2018-06-23T04:30:52.506Z,99.99
2018-06-23T04:31:52.476Z,99.99
2018-06-23T04:32:52.414Z,99.99
2018-06-23T04:33:52.376Z,99.99
2018-06-23T04:34:52.336Z,99.99
2018-06-23T04:35:52.302Z,99.99
2018-06-23T04:36:52.283Z,99.99
2018-06-23T04:37:52.224Z,99.95
2018-06-23T04:38:52.181Z,96.99
2018-06-23T04:39:52.132Z,94.84
2018-06-23T04:40:52.092Z,92.73
2018-06-23T04:41:52.087Z,92.21
2018-06-23T04:42:52.021Z,93.31
2018-06-23T04:43:51.974Z,95.03
2018-06-23T04:44:51.938Z,96.13
2018-06-23T04:45:51.893Z,97.08
2018-06-23T04:46:51.857Z,97.80
2018-06-23T04:47:51.847Z,98.18
2018-06-23T04:48:51.783Z,98.57
2018-06-23T04:49:51.746Z,98.80
2018-06-23T04:50:51.705Z,99.18
2018-06-23T04:51:51.658Z,99.99
2018-06-23T04:52:51.646Z,99.99
2018-06-23T04:53:51.580Z,99.99
2018-06-23T04:54:51.569Z,99.99
2018-06-23T04:55:51.512Z,99.99
2018-06-23T04:56:51.472Z,99.99
2018-06-23T04:57:51.427Z,99.99
2018-06-23T04:58:51.410Z,99.99
2018-06-23T04:59:51.384Z,99.99
2018-06-23T05:00:51.320Z,99.99
2018-06-23T05:01:51.278Z,99.99
2018-06-23T05:02:51.236Z,99.99
2018-06-23T05:03:51.223Z,99.99
2018-06-23T05:04:51.152Z,99.99
2018-06-23T05:05:51.113Z,99.99
2018-06-23T05:06:51.078Z,99.99
2018-06-23T05:07:51.042Z,99.99
2018-06-23T05:08:51.005Z,99.99
2018-06-23T05:09:50.992Z,99.99
2018-06-23T05:10:50.925Z,99.99
2018-06-23T05:11:50.884Z,99.99
2018-06-23T05:12:50.842Z,99.99
2018-06-23T05:13:50.810Z,99.99
2018-06-23T05:14:50.791Z,99.99
2018-06-23T05:15:50.726Z,99.99
2018-06-23T05:16:50.688Z,99.99
2018-06-23T05:17:50.669Z,99.99
2018-06-23T05:18:50.610Z,99.99
2018-06-23T05:19:50.603Z,99.99
2018-06-23T05:20:50.538Z,99.99
2018-06-23T05:21:50.497Z,99.99
2018-06-23T05:22:50.459Z,99.99
2018-06-23T05:23:50.416Z,99.99
2018-06-23T05:24:50.377Z,99.28
2018-06-23T05:25:50.360Z,98.90
2018-06-23T05:26:50.299Z,98.99
2018-06-23T05:27:50.270Z,96.80
2018-06-23T05:28:50.230Z,96.61
2018-06-23T05:29:50.184Z,96.42
2018-06-23T05:30:50.166Z,96.80
2018-06-23T05:31:50.156Z,96.89
2018-06-23T05:32:50.072Z,96.56
2018-06-23T05:33:50.035Z,97.71
2018-06-23T05:34:49.993Z,97.71
2018-06-23T05:35:49.972Z,97.80
2018-06-23T05:36:49.912Z,97.61
2018-06-23T05:37:49.916Z,98.75
2018-06-23T05:38:49.834Z,98.28
2018-06-23T05:39:49.805Z,98.13
2018-06-23T05:40:49.796Z,99.18
2018-06-23T05:41:49.726Z,98.90
2018-06-23T05:42:49.686Z,99.99
2018-06-23T05:43:49.642Z,99.99
2018-06-23T05:44:49.665Z,99.99
2018-06-23T05:45:49.572Z,99.99
2018-06-23T05:46:49.556Z,99.99
2018-06-23T05:47:49.487Z,99.99
2018-06-23T05:48:49.452Z,99.99
2018-06-23T05:49:49.414Z,99.99
2018-06-23T05:50:49.374Z,99.99
2018-06-23T05:51:49.364Z,99.99
2018-06-23T05:52:49.302Z,99.95
2018-06-23T05:53:49.263Z,99.99
2018-06-23T05:54:49.225Z,99.99
2018-06-23T05:55:49.178Z,99.99
2018-06-23T05:56:49.165Z,99.99
2018-06-23T05:57:49.100Z,99.99
2018-06-23T05:58:49.063Z,99.99
2018-06-23T05:59:49.031Z,99.99
2018-06-23T06:00:49.058Z,99.99
2018-06-23T06:01:48.947Z,99.99
2018-06-23T06:02:48.928Z,99.99
2018-06-23T06:03:48.882Z,99.99
2018-06-23T06:04:48.836Z,99.99
2018-06-23T06:05:48.799Z,99.99
2018-06-23T06:06:48.757Z,99.99
2018-06-23T06:07:48.735Z,99.99
2018-06-23T06:08:48.672Z,99.99
2018-06-23T06:09:48.637Z,99.99
2018-06-23T06:10:48.598Z,99.99
2018-06-23T06:11:48.631Z,99.99
2018-06-23T06:12:48.551Z,99.99
2018-06-23T06:13:48.487Z,99.99
2018-06-23T06:14:48.445Z,99.99
2018-06-23T06:15:48.401Z,99.99
2018-06-23T06:16:48.366Z,99.99
2018-06-23T06:17:48.358Z,99.99
2018-06-23T06:18:48.290Z,99.99
2018-06-23T06:19:48.249Z,99.99
2018-06-23T06:20:48.210Z,99.99
2018-06-23T06:21:48.168Z,99.99
2018-06-23T06:22:48.130Z,99.99
2018-06-23T06:23:48.182Z,99.99
2018-06-23T06:24:48.061Z,99.99
2018-06-23T06:25:48.021Z,99.99
2018-06-23T06:26:47.982Z,99.99
2018-06-23T06:27:47.937Z,99.99
2018-06-23T06:28:47.922Z,99.99
2018-06-23T06:29:47.860Z,99.99
2018-06-23T06:30:47.824Z,99.99
2018-06-23T06:31:47.785Z,99.99
2018-06-23T06:32:47.748Z,99.99
2018-06-23T06:33:47.726Z,99.99
2018-06-23T06:34:47.663Z,99.99
2018-06-23T06:35:47.631Z,99.99
2018-06-23T06:36:47.592Z,99.99
2018-06-23T06:37:47.553Z,99.99
2018-06-23T06:38:47.536Z,99.99
2018-06-23T06:39:47.469Z,99.99
2018-06-23T06:40:47.431Z,99.99
2018-06-23T06:41:47.392Z,99.99
2018-06-23T06:42:47.351Z,99.99
2018-06-23T06:43:47.346Z,99.99
2018-06-23T06:44:47.282Z,99.99
2018-06-23T06:45:47.243Z,99.99
2018-06-23T06:46:47.205Z,99.99
2018-06-23T06:47:47.158Z,99.99
2018-06-23T06:48:47.119Z,99.99
2018-06-23T06:49:47.110Z,99.99
2018-06-23T06:50:47.049Z,99.99
2018-06-23T06:51:47.003Z,99.99
2018-06-23T06:52:46.964Z,99.99
2018-06-23T06:53:46.925Z,99.99
2018-06-23T06:54:46.905Z,99.99
2018-06-23T06:55:46.852Z,99.99
2018-06-23T06:56:46.814Z,99.99
2018-06-23T06:57:46.780Z,99.99
2018-06-23T06:58:46.739Z,99.99
2018-06-23T06:59:46.717Z,99.99
2018-06-23T07:00:46.651Z,99.99
2018-06-23T07:01:46.613Z,99.99
2018-06-23T07:02:46.573Z,99.99
2018-06-23T07:03:46.542Z,99.99
2018-06-23T07:04:46.503Z,99.99
2018-06-23T07:05:46.476Z,99.99
2018-06-23T07:06:46.416Z,99.99
2018-06-23T07:07:46.387Z,99.99
2018-06-23T07:08:46.354Z,99.99
2018-06-23T07:09:46.308Z,99.99
2018-06-23T07:10:46.290Z,99.99
2018-06-23T07:11:46.223Z,99.99
2018-06-23T07:12:46.183Z,99.99
2018-06-23T07:13:46.148Z,99.99
2018-06-23T07:14:46.108Z,99.99
2018-06-23T07:15:46.099Z,99.99
2018-06-23T07:16:46.038Z,99.99
2018-06-23T07:17:45.999Z,99.99
2018-06-23T07:18:45.959Z,99.99
2018-06-23T07:19:45.915Z,99.99
2018-06-23T07:20:45.906Z,99.99
2018-06-23T07:21:45.866Z,98.43
2018-06-23T07:22:45.805Z,97.09
2018-06-23T07:23:45.861Z,94.64
2018-06-23T07:24:45.724Z,93.68
2018-06-23T07:25:45.688Z,93.06
2018-06-23T07:26:45.716Z,93.88
2018-06-23T07:27:45.617Z,94.02
2018-06-23T07:28:45.580Z,92.77
2018-06-23T07:29:45.545Z,91.72
2018-06-23T07:30:45.556Z,92.48
2018-06-23T07:31:45.495Z,91.77
2018-06-23T07:32:45.426Z,92.15
2018-06-23T07:33:45.398Z,92.63
2018-06-23T07:34:45.480Z,92.39
2018-06-23T07:35:45.326Z,92.87
2018-06-23T07:36:45.317Z,93.35
2018-06-23T07:37:45.249Z,94.50
2018-06-23T07:38:45.209Z,94.21
2018-06-23T07:39:45.191Z,92.30
2018-06-23T07:40:45.207Z,93.26
2018-06-23T07:41:45.112Z,93.35
2018-06-23T07:42:45.096Z,92.39
2018-06-23T07:43:45.031Z,91.43
2018-06-23T07:44:45.001Z,92.58
2018-06-23T07:45:44.960Z,92.39
2018-06-23T07:46:44.925Z,92.30
2018-06-23T07:47:44.920Z,93.63
2018-06-23T07:48:44.868Z,93.63
2018-06-23T07:49:44.828Z,92.30
2018-06-23T07:50:44.790Z,93.78
2018-06-23T07:51:44.746Z,92.44
2018-06-23T07:52:44.736Z,92.34
2018-06-23T07:53:44.685Z,90.61
2018-06-23T07:54:44.647Z,90.90
2018-06-23T07:55:44.607Z,91.09
2018-06-23T07:56:44.598Z,91.34
2018-06-23T07:57:44.558Z,91.77
2018-06-23T07:58:44.508Z,91.09
2018-06-23T07:59:44.475Z,91.57
2018-06-23T08:00:44.437Z,91.91
2018-06-23T08:01:44.604Z,91.66
2018-06-23T08:02:44.392Z,89.89
2018-06-23T08:03:44.322Z,86.90
2018-06-23T08:04:44.286Z,83.15
2018-06-23T08:05:44.254Z,83.63
2018-06-23T08:06:44.225Z,82.73
2018-06-23T08:07:44.222Z,84.21
2018-06-23T08:08:44.152Z,82.48
2018-06-23T08:09:44.116Z,84.78
2018-06-23T08:10:44.079Z,84.30
2018-06-23T08:11:44.108Z,83.34
2018-06-23T08:12:44.040Z,85.94
2018-06-23T08:13:43.997Z,85.03
2018-06-23T08:14:43.949Z,85.03
2018-06-23T08:15:43.923Z,85.37
2018-06-23T08:16:43.877Z,86.81
2018-06-23T08:17:43.836Z,86.87
2018-06-23T08:18:43.824Z,87.05
2018-06-23T08:19:43.776Z,86.96
2018-06-23T08:20:43.746Z,85.22
2018-06-23T08:21:43.708Z,84.73
2018-06-23T08:22:43.673Z,82.37
2018-06-23T08:23:43.667Z,80.21
2018-06-23T08:24:43.600Z,79.35
2018-06-23T08:25:43.577Z,78.63
2018-06-23T08:26:43.618Z,81.42
2018-06-23T08:27:43.500Z,83.67
2018-06-23T08:28:43.492Z,81.13
2018-06-23T08:29:43.430Z,81.09
2018-06-23T08:30:43.398Z,84.26
2018-06-23T08:31:43.429Z,85.80
2018-06-23T08:32:43.338Z,85.18
2018-06-23T08:33:43.304Z,86.18
2018-06-23T08:34:43.292Z,84.99
2018-06-23T08:35:43.231Z,85.91
2018-06-23T08:36:43.193Z,85.71
2018-06-23T08:37:43.238Z,87.78
2018-06-23T08:38:43.169Z,88.02
2018-06-23T08:39:43.125Z,88.70
2018-06-23T08:40:43.065Z,89.80
2018-06-23T08:41:43.021Z,89.23
2018-06-23T08:42:42.987Z,90.05
2018-06-23T08:43:43.021Z,90.72
2018-06-23T08:44:42.945Z,90.05
2018-06-23T08:45:42.888Z,91.00
2018-06-23T08:46:42.854Z,91.19
2018-06-23T08:47:42.818Z,91.67
2018-06-23T08:48:42.775Z,92.11
2018-06-23T08:49:42.769Z,92.25
2018-06-23T08:50:42.707Z,92.78
2018-06-23T08:51:42.675Z,91.72
2018-06-23T08:52:42.687Z,91.72
2018-06-23T08:53:42.606Z,92.68
2018-06-23T08:54:42.570Z,92.30
2018-06-23T08:55:42.546Z,92.25
2018-06-23T08:56:42.490Z,91.49
2018-06-23T08:57:42.462Z,90.47
2018-06-23T08:58:42.423Z,89.75
2018-06-23T08:59:42.378Z,88.45
2018-06-23T09:00:42.375Z,86.00
2018-06-23T09:01:42.321Z,84.07
2018-06-23T09:02:42.319Z,83.74
2018-06-23T09:03:42.238Z,84.31
2018-06-23T09:04:42.207Z,82.49
2018-06-23T09:05:42.196Z,81.92
2018-06-23T09:06:42.131Z,83.74
2018-06-23T09:07:42.091Z,83.45
2018-06-23T09:08:42.055Z,83.54
2018-06-23T09:09:42.020Z,84.47
2018-06-23T09:10:41.983Z,84.95
2018-06-23T09:11:41.978Z,85.14
2018-06-23T09:12:41.921Z,85.10
2018-06-23T09:13:41.910Z,85.28
2018-06-23T09:14:41.842Z,85.82
2018-06-23T09:15:41.814Z,86.11
2018-06-23T09:16:41.809Z,86.54
2018-06-23T09:17:41.744Z,88.17
2018-06-23T09:18:41.708Z,90.28
2018-06-23T09:19:41.810Z,89.28
2018-06-23T09:20:41.629Z,90.05
2018-06-23T09:21:41.615Z,90.91
2018-06-23T09:22:41.559Z,89.57
2018-06-23T09:23:41.532Z,90.05
2018-06-23T09:24:41.491Z,90.81
2018-06-23T09:25:41.456Z,91.49
2018-06-23T09:26:41.446Z,91.58
2018-06-23T09:27:41.383Z,92.35
2018-06-23T09:28:41.338Z,92.49
2018-06-23T09:29:41.312Z,92.30
2018-06-23T09:30:41.276Z,92.30
2018-06-23T09:31:41.229Z,92.21
2018-06-23T09:32:41.218Z,93.40
2018-06-23T09:33:41.158Z,92.54
2018-06-23T09:34:41.118Z,91.96
2018-06-23T09:35:41.087Z,91.77
2018-06-23T09:36:41.060Z,90.18
2018-06-23T09:37:41.037Z,89.89
2018-06-23T09:38:41.039Z,88.55
2018-06-23T09:39:40.936Z,87.98
2018-06-23T09:40:40.900Z,88.02
2018-06-23T09:41:40.863Z,87.44
2018-06-23T09:42:40.852Z,87.05
2018-06-23T09:43:40.795Z,86.87
2018-06-23T09:44:40.763Z,87.54
2018-06-23T09:45:40.721Z,87.73
2018-06-23T09:46:40.681Z,86.48
2018-06-23T09:47:40.652Z,87.82
2018-06-23T09:48:40.639Z,87.35
2018-06-23T09:49:40.583Z,85.71
2018-06-23T09:50:40.546Z,88.02
2018-06-23T09:51:40.507Z,86.25
2018-06-23T09:52:40.466Z,86.63
2018-06-23T09:53:40.500Z,87.59
2018-06-23T09:54:40.396Z,88.55
2018-06-23T09:55:40.373Z,88.51
2018-06-23T09:56:40.337Z,89.18
2018-06-23T09:57:40.297Z,89.08
2018-06-23T09:58:40.284Z,89.23
2018-06-23T09:59:40.220Z,89.61
2018-06-23T10:00:40.181Z,90.00
2018-06-23T10:01:40.156Z,89.80
2018-06-23T10:02:40.114Z,90.76
2018-06-23T10:03:40.104Z,90.38
2018-06-23T10:04:40.039Z,91.24
2018-06-23T10:05:40.030Z,91.00
2018-06-23T10:06:39.963Z,90.43
2018-06-23T10:07:39.937Z,91.19
2018-06-23T10:08:39.938Z,91.96
2018-06-23T10:09:39.891Z,91.39
2018-06-23T10:10:39.825Z,90.81
2018-06-23T10:11:39.783Z,92.68
2018-06-23T10:12:39.750Z,92.01
2018-06-23T10:13:39.716Z,90.86
2018-06-23T10:14:39.696Z,91.82
2018-06-23T10:15:39.642Z,90.67
2018-06-23T10:16:39.606Z,90.67
2018-06-23T10:17:39.564Z,89.94
2018-06-23T10:18:39.527Z,90.42
2018-06-23T10:19:39.524Z,89.32
2018-06-23T10:20:39.461Z,89.61
2018-06-23T10:21:39.427Z,88.84
2018-06-23T10:22:39.385Z,88.26
2018-06-23T10:23:39.346Z,87.88
2018-06-23T10:24:39.331Z,88.45
2018-06-23T10:25:39.296Z,88.17
2018-06-23T10:26:39.233Z,88.84
2018-06-23T10:27:39.235Z,89.79
2018-06-23T10:28:39.169Z,88.41
2018-06-23T10:29:39.134Z,89.94
2018-06-23T10:30:39.118Z,91.77
2018-06-23T10:31:39.055Z,90.81
2018-06-23T10:32:39.040Z,90.67
2018-06-23T10:33:38.988Z,91.86
2018-06-23T10:34:38.952Z,91.57
2018-06-23T10:35:38.929Z,91.57
2018-06-23T10:36:38.872Z,91.14
2018-06-23T10:37:38.840Z,90.47
2018-06-23T10:38:38.863Z,89.94
2018-06-23T10:39:38.785Z,90.22
2018-06-23T10:40:38.762Z,90.13
2018-06-23T10:41:38.700Z,90.42
2018-06-23T10:42:38.661Z,90.80
2018-06-23T10:43:38.622Z,90.28
2018-06-23T10:44:38.585Z,90.32
2018-06-23T10:45:38.548Z,91.86
2018-06-23T10:46:38.537Z,90.03
2018-06-23T10:47:38.489Z,89.32
2018-06-23T10:48:38.447Z,89.84
2018-06-23T10:49:38.409Z,90.42
2018-06-23T10:50:38.369Z,90.03
2018-06-23T10:51:38.366Z,89.07
2018-06-23T10:52:38.303Z,89.07
2018-06-23T10:53:38.268Z,88.93
2018-06-23T10:54:38.233Z,87.58
2018-06-23T10:55:38.188Z,87.62
2018-06-23T10:56:38.184Z,86.85
2018-06-23T10:57:38.118Z,88.68
2018-06-23T10:58:38.082Z,86.18
2018-06-23T10:59:38.057Z,85.61
2018-06-23T11:00:38.022Z,86.18
2018-06-23T11:01:37.993Z,85.51
2018-06-23T11:02:37.977Z,85.94
2018-06-23T11:03:37.911Z,86.04
2018-06-23T11:04:37.944Z,84.78
2018-06-23T11:05:37.867Z,84.69
2018-06-23T11:06:37.811Z,85.46
2018-06-23T11:07:37.795Z,85.51
2018-06-23T11:08:37.741Z,86.18
2018-06-23T11:09:37.698Z,86.76
2018-06-23T11:10:37.664Z,85.61
2018-06-23T11:11:37.638Z,85.99
2018-06-23T11:12:37.627Z,86.81
2018-06-23T11:13:37.572Z,85.66
2018-06-23T11:14:37.536Z,86.81
2018-06-23T11:15:37.494Z,88.45
2018-06-23T11:16:37.459Z,86.33
2018-06-23T11:17:37.452Z,87.05
2018-06-23T11:18:37.389Z,86.77
2018-06-23T11:19:37.359Z,88.49
2018-06-23T11:20:37.329Z,87.68
2018-06-23T11:21:37.283Z,87.88
2018-06-23T11:22:37.249Z,89.51
2018-06-23T11:23:37.242Z,90.37
2018-06-23T11:24:37.279Z,91.24
2018-06-23T11:25:37.151Z,92.00
2018-06-23T11:26:37.117Z,89.99
2018-06-23T11:27:37.078Z,90.18
2018-06-23T11:28:37.058Z,90.75
2018-06-23T11:29:37.002Z,91.14
2018-06-23T11:30:36.966Z,90.75
2018-06-23T11:31:36.939Z,91.42
2018-06-23T11:32:36.900Z,92.10
2018-06-23T11:33:36.893Z,90.75
2018-06-23T11:34:36.826Z,89.22
2018-06-23T11:35:36.792Z,90.28
2018-06-23T11:36:36.751Z,89.99
2018-06-23T11:37:36.726Z,89.79
2018-06-23T11:38:36.683Z,89.89
2018-06-23T11:39:36.663Z,89.41
2018-06-23T11:40:36.608Z,89.12
2018-06-23T11:41:36.569Z,90.08
2018-06-23T11:42:36.543Z,89.03
2018-06-23T11:43:36.505Z,89.61
2018-06-23T11:44:36.493Z,89.32
2018-06-23T11:45:36.432Z,90.18
2018-06-23T11:46:36.443Z,90.75
2018-06-23T11:47:36.356Z,90.56
2018-06-23T11:48:36.318Z,90.66
2018-06-23T11:49:36.305Z,90.37
2018-06-23T11:50:36.249Z,90.95
2018-06-23T11:51:36.216Z,90.28
2018-06-23T11:52:36.180Z,90.85
2018-06-23T11:53:36.141Z,90.33
2018-06-23T11:54:36.123Z,91.57
2018-06-23T11:55:36.070Z,90.71
2018-06-23T11:56:36.034Z,90.33
2018-06-23T11:57:35.998Z,90.81
2018-06-23T11:58:35.965Z,89.85
2018-06-23T11:59:35.946Z,91.09
2018-06-23T12:00:35.882Z,91.57
2018-06-23T12:01:35.849Z,91.38
2018-06-23T12:02:35.812Z,91.67
2018-06-23T12:03:35.781Z,90.37
2018-06-23T12:04:35.744Z,90.37
2018-06-23T12:05:35.733Z,90.03
2018-06-23T12:06:35.673Z,90.17
2018-06-23T12:07:35.626Z,89.31
2018-06-23T12:08:35.595Z,88.01
2018-06-23T12:09:35.590Z,88.97
2018-06-23T12:10:35.531Z,85.99
2018-06-23T12:11:35.482Z,86.71
2018-06-23T12:12:35.458Z,86.04
2018-06-23T12:13:35.417Z,84.59
2018-06-23T12:14:35.378Z,83.53
2018-06-23T12:15:35.374Z,84.69
2018-06-23T12:16:35.314Z,85.78
2018-06-23T12:17:35.279Z,85.21
2018-06-23T12:18:35.243Z,85.50
2018-06-23T12:19:35.201Z,84.16
2018-06-23T12:20:35.189Z,83.09
2018-06-23T12:21:35.131Z,82.94
2018-06-23T12:22:35.102Z,81.70
2018-06-23T12:23:35.069Z,81.12
2018-06-23T12:24:35.038Z,80.25
2018-06-23T12:25:35.015Z,81.79
2018-06-23T12:26:34.960Z,80.54
2018-06-23T12:27:34.936Z,80.44
2018-06-23T12:28:34.900Z,80.83
2018-06-23T12:29:34.876Z,80.25
2018-06-23T12:30:34.859Z,79.63
2018-06-23T12:31:34.791Z,83.19
2018-06-23T12:32:34.762Z,82.90
2018-06-23T12:33:34.723Z,82.61
2018-06-23T12:34:34.691Z,81.94
2018-06-23T12:35:34.662Z,82.42
2018-06-23T12:36:34.654Z,82.90
2018-06-23T12:37:34.599Z,83.29
2018-06-23T12:38:34.563Z,82.42
2018-06-23T12:39:34.520Z,82.32
2018-06-23T12:40:34.486Z,82.42
2018-06-23T12:41:34.529Z,81.17
2018-06-23T12:42:34.429Z,81.40
2018-06-23T12:43:34.384Z,79.96
2018-06-23T12:44:34.353Z,79.77
2018-06-23T12:45:34.319Z,79.19
2018-06-23T12:46:34.313Z,79.96
2018-06-23T12:47:34.264Z,81.16
2018-06-23T12:48:34.244Z,78.94
2018-06-23T12:49:34.197Z,80.29
2018-06-23T12:50:34.161Z,81.87
2018-06-23T12:51:34.121Z,78.75